Big Bear Station Historical Data
Daily Summary for March 27, 2019 Units:  Metric    English   Both
Next Day »
Daily Weekly Monthly Yearly Custom
  High: Low: Average:
Temperature: 12.4 °C 2.4 °C 6.1 °C
Dew Point: 2.5 °C -13.1 °C -6.2 °C
Humidity: 93% 27% 45%
Wind Speed: 10.1km/h 0km/h 3.5km/h
Wind Gust: -1607.7km/h - -
Wind- - West
Pressure: 796.4 hPa 793.3 hPa -
Precipitation: 0 mm    
Historical Graphs
 
 
Tabular Data for March 27, 2019
Time Temperature Dew Point Pressure Wind Wind Speed Wind Gust Humidity Rainfall Rate (Hourly)
00:12 3 °C -12.1 °C 794.7 hPa Calm   -1607.7 km/h 32% 0 mm
00:27 3.4 °C -12.2 °C 794.4 hPa Calm   -1607.7 km/h 31% 0 mm
00:43 3.3 °C -12.3 °C 794.4 hPa Calm   -1607.7 km/h 31% 0 mm
00:58 3.3 °C -12.7 °C 794.4 hPa Calm   -1607.7 km/h 30% 0 mm
01:13 3.2 °C -13.1 °C 794.4 hPa Calm   -1607.7 km/h 29% 0 mm
01:28 2.9 °C -12.2 °C 794.4 hPa Calm   -1607.7 km/h 32% 0 mm
01:43 2.6 °C -12.1 °C 794.4 hPa Calm   -1607.7 km/h 33% 0 mm
01:59 3.2 °C -11.6 °C 794.4 hPa Calm   -1607.7 km/h 33% 0 mm
02:14 3.4 °C -11.4 °C 794.4 hPa Calm   -1607.7 km/h 33% 0 mm
02:29 3.3 °C -11.5 °C 794.4 hPa Calm   -1607.7 km/h 33% 0 mm
02:44 3.3 °C -12.3 °C 794 hPa Calm   -1607.7 km/h 31% 0 mm
02:59 3.4 °C -13 °C 794 hPa Calm   -1607.7 km/h 29% 0 mm
03:15 3.5 °C -12.5 °C 794 hPa Calm   -1607.7 km/h 30% 0 mm
03:30 3.7 °C -13.1 °C 794 hPa SE 2.7 km/h -1607.7 km/h 28% 0 mm
03:45 3.7 °C -12.7 °C 794 hPa Calm   -1607.7 km/h 29% 0 mm
04:00 4 °C -11.6 °C 794 hPa NNW 3.5 km/h -1607.7 km/h 31% 0 mm
04:15 3.6 °C -10.8 °C 793.7 hPa West 2.7 km/h -1607.7 km/h 34% 0 mm
04:31 3.7 °C -11.1 °C 793.7 hPa Calm   -1607.7 km/h 33% 0 mm
04:46 3.9 °C -10.6 °C 793.7 hPa Calm   -1607.7 km/h 34% 0 mm
05:01 3.7 °C -10.3 °C 794 hPa Calm   -1607.7 km/h 35% 0 mm
05:16 3.6 °C -10.8 °C 793.7 hPa Calm   -1607.7 km/h 34% 0 mm
05:32 3.6 °C -11.6 °C 793.7 hPa West 3.5 km/h -1607.7 km/h 32% 0 mm
05:47 3.5 °C -11.7 °C 793.7 hPa NW 7.6 km/h -1607.7 km/h 32% 0 mm
06:02 3.8 °C -11.4 °C 793.3 hPa Calm   -1607.7 km/h 32% 0 mm
06:17 4 °C -11.2 °C 793.7 hPa Calm   -1607.7 km/h 32% 0 mm
06:33 4.2 °C -11.1 °C 793.7 hPa SSW 3.5 km/h -1607.7 km/h 32% 0 mm
06:48 4.5 °C -11.6 °C 794 hPa Calm   -1607.7 km/h 30% 0 mm
07:03 4.1 °C -11.9 °C 794 hPa Calm   -1607.7 km/h 30% 0 mm
07:18 3.9 °C -11.3 °C 794.4 hPa Calm   -1607.7 km/h 32% 0 mm
07:33 4.2 °C -11.4 °C 794.4 hPa Calm   -1607.7 km/h 31% 0 mm
07:49 4.9 °C -10.4 °C 794.4 hPa Calm   -1607.7 km/h 32% 0 mm
08:04 5.3 °C -10.1 °C 794.7 hPa NW 2.7 km/h -1607.7 km/h 32% 0 mm
08:19 5.9 °C -10 °C 794.7 hPa ESE 3.5 km/h -1607.7 km/h 31% 0 mm
08:35 6.3 °C -8.8 °C 794.7 hPa WSW 1.8 km/h -1607.7 km/h 33% 0 mm
08:50 6.6 °C -9.3 °C 794.7 hPa West 3.5 km/h -1607.7 km/h 31% 0 mm
09:06 6.8 °C -8 °C 795 hPa SSW 7.6 km/h -1607.7 km/h 34% 0 mm
09:21 7.1 °C -8.1 °C 795 hPa West 3.5 km/h -1607.7 km/h 33% 0 mm
09:36 7.9 °C -7.8 °C 795 hPa NW 4.3 km/h -1607.7 km/h 32% 0 mm
09:51 8.2 °C -8.3 °C 795.4 hPa NW 2.7 km/h -1607.7 km/h 30% 0 mm
10:06 8.5 °C -8.1 °C 795.4 hPa NNE 6.8 km/h -1607.7 km/h 30% 0 mm
10:22 8.4 °C -8.2 °C 795.4 hPa NW 6.8 km/h -1607.7 km/h 30% 0 mm
10:37 8.2 °C -7.1 °C 795.4 hPa NW 9.3 km/h -1607.7 km/h 33% 0 mm
10:52 8.4 °C -7 °C 795.4 hPa NNE 7.6 km/h -1607.7 km/h 33% 0 mm
11:08 8.5 °C -7.3 °C 795.4 hPa WNW 4.3 km/h -1607.7 km/h 32% 0 mm
11:23 8.5 °C -6.1 °C 795.4 hPa NNW 5.1 km/h -1607.7 km/h 35% 0 mm
11:38 8.6 °C -6.4 °C 795.4 hPa WSW 4.3 km/h -1607.7 km/h 34% 0 mm
11:53 9.3 °C -6.6 °C 795.7 hPa NNW 6 km/h -1607.7 km/h 32% 0 mm
12:08 9.6 °C -5.1 °C 795.4 hPa WNW 6.8 km/h -1607.7 km/h 35% 0 mm
12:24 10.3 °C -4.9 °C 795.4 hPa NNW 4.3 km/h -1607.7 km/h 34% 0 mm
12:39 11 °C -4.7 °C 795.4 hPa West 9.3 km/h -1607.7 km/h 33% 0 mm
12:55 11.5 °C -3.8 °C 795.4 hPa NNW 4.3 km/h -1607.7 km/h 34% 0 mm
13:10 12.2 °C -3.2 °C 795.4 hPa NW 4.3 km/h -1607.7 km/h 34% 0 mm
13:25 11.9 °C -5.6 °C 795.4 hPa NE 7.6 km/h -1607.7 km/h 29% 0 mm
13:41 12.4 °C -6.1 °C 795.4 hPa South 4.3 km/h -1607.7 km/h 27% 0 mm
13:56 12.4 °C -5.6 °C 795.4 hPa WNW 5.1 km/h -1607.7 km/h 28% 0 mm
14:11 11.6 °C -4.6 °C 795.4 hPa SSW 8.5 km/h -1607.7 km/h 32% 0 mm
14:26 11.6 °C -5.8 °C 795.4 hPa NNW 6.8 km/h -1607.7 km/h 29% 0 mm
14:41 11.2 °C -6.7 °C 795 hPa NNW 10.1 km/h -1607.7 km/h 28% 0 mm
14:57 10.7 °C -6.2 °C 795.4 hPa NNW 9.3 km/h -1607.7 km/h 30% 0 mm
15:12 10.5 °C -5.5 °C 795.4 hPa NW 10.1 km/h -1607.7 km/h 32% 0 mm
15:27 10.9 °C -4.4 °C 795.4 hPa NW 7.6 km/h -1607.7 km/h 34% 0 mm
15:43 10.2 °C -3.8 °C 795.4 hPa NW 6.8 km/h -1607.7 km/h 37% 0 mm
15:58 10.5 °C -5.1 °C 795 hPa NNW 10.1 km/h -1607.7 km/h 33% 0 mm
16:13 10.3 °C -4.9 °C 795 hPa NNW 6 km/h -1607.7 km/h 34% 0 mm
16:29 10 °C -4.8 °C 795 hPa NNW 4.3 km/h -1607.7 km/h 35% 0 mm
16:44 10 °C -4.4 °C 795 hPa SSW 4.3 km/h -1607.7 km/h 36% 0 mm
16:59 9.9 °C -3.4 °C 795 hPa NW 3.5 km/h -1607.7 km/h 39% 0 mm
17:14 12 °C -3 °C 795 hPa South 6 km/h -1607.7 km/h 35% 0 mm
17:29 10.6 °C -5 °C 795 hPa NNE 1.8 km/h -1607.7 km/h 33% 0 mm
17:45 10.2 °C -5.3 °C 795 hPa Calm   -1607.7 km/h 33% 0 mm
18:00 9.5 °C -6.4 °C 795 hPa Calm   -1607.7 km/h 32% 0 mm
18:15 8.2 °C -2.7 °C 795 hPa SSW 4.3 km/h -1607.7 km/h 46% 0 mm
18:31 6.8 °C 1.7 °C 795 hPa NNW 7.6 km/h -1607.7 km/h 70% 0 mm
18:46 5.9 °C 2.5 °C 795 hPa Calm   -1607.7 km/h 79% 0 mm
19:01 5 °C 2.5 °C 795 hPa Calm   -1607.7 km/h 84% 0 mm
19:16 4.1 °C 2.3 °C 795.4 hPa ESE 1.8 km/h -1607.7 km/h 88% 0 mm
19:31 3.6 °C 2.3 °C 795 hPa Calm   -1607.7 km/h 91% 0 mm
19:47 3.3 °C 2.1 °C 795 hPa NW 7.6 km/h -1607.7 km/h 92% 0 mm
20:02 3.1 °C 1.9 °C 795.4 hPa West 2.7 km/h -1607.7 km/h 92% 0 mm
20:17 2.9 °C 1.7 °C 795.4 hPa Calm   -1607.7 km/h 92% 0 mm
20:32 2.9 °C 1.7 °C 795.7 hPa Calm   -1607.7 km/h 92% 0 mm
20:47 2.9 °C 1.7 °C 795.7 hPa NW 5.1 km/h -1607.7 km/h 92% 0 mm
21:03 2.8 °C 1.8 °C 796 hPa NNW 8.5 km/h -1607.7 km/h 93% 0 mm
21:18 2.7 °C 1.6 °C 796 hPa NW 6 km/h -1607.7 km/h 92% 0 mm
21:33 2.6 °C 1.4 °C 796.4 hPa SSW 10.1 km/h -1607.7 km/h 92% 0 mm
21:48 2.5 °C 1.3 °C 796.4 hPa Calm   -1607.7 km/h 92% 0 mm
22:03 2.6 °C 1.1 °C 796.4 hPa SW 2.7 km/h -1607.7 km/h 90% 0 mm
22:19 2.6 °C 1 °C 796.4 hPa South 3.5 km/h -1607.7 km/h 89% 0 mm
22:34 2.5 °C 0.9 °C 796.4 hPa NW 3.5 km/h -1607.7 km/h 89% 0 mm
22:49 2.6 °C 0.7 °C 796.4 hPa NNW 2.7 km/h -1607.7 km/h 87% 0 mm
23:05 2.4 °C 0.3 °C 796.4 hPa WNW 4.3 km/h -1607.7 km/h 86% 0 mm
23:20 2.4 °C -1.4 °C 796.4 hPa West 5.1 km/h -1607.7 km/h 76% 0 mm
23:35 2.4 °C -1.6 °C 796.4 hPa WNW 6 km/h -1607.7 km/h 75% 0 mm
23:50 2.4 °C -1.2 °C 796.4 hPa Calm   -1607.7 km/h 77% 0 mm
Big Bear CA Weather